Terminal Aerodrome Forecast
Issued by NWS

Home | Current Version | Previous Version | Text Only | Print | Product List | Glossary On
Versions: 1 2 3 4 5 6 7 8 9 10 11 12 13 14 15 16 17 18 19 20 21 22 23 24 25 26 27
000
FTUS45 KGJT 041724
TAFMTJ
TAF
KMTJ 041724Z 0418/0518 34006KT P6SM VCSH BKN100 BKN150
      TEMPO 0418/0420 -RA BKN080
     FM042000 31008KT P6SM VCTS SCT050CB BKN080
     FM050100 15007KT P6SM BKN100
     FM051500 35006KT P6SM BKN080=

USA.gov is the U.S. government's official web portal to all federal, state and local government web resources and services.